| time (UTC) | temp F | wind direction | speed MPH | gust MPH | rain 1hr in | rain 24hr in | rain mn in | humidity % | barometer mb |
| 20260510031549 | 47 | 304 | 3.0 | 5.0 | 0.00 | 0.43 | 0.43 | 96 | 1009.5 |
| 20260510030037 | 47 | 296 | 2.0 | 4.0 | 0.00 | 0.43 | 0.43 | 96 | 1009.8 |
| 20260510024535 | 47 | 312 | 1.0 | 5.0 | 0.00 | 0.43 | 0.43 | 96 | 1009.3 |
| 20260510023043 | 47 | 68 | 1.0 | 6.0 | 0.00 | 0.43 | 0.43 | 96 | 1009.5 |
| 20260510021531 | 47 | 31 | 1.0 | 4.0 | 0.00 | 0.43 | 0.43 | 96 | 1009.6 |
| 20260510020032 | 47 | 0 | 1.0 | 4.0 | 0.00 | 0.43 | 0.43 | 96 | 1009.3 |
| 20260510014533 | 47 | 321 | 1.0 | 4.0 | 0.00 | 0.43 | 0.43 | 96 | 1009.2 |
| 20260510013031 | 48 | 303 | 1.0 | 4.0 | 0.00 | 0.43 | 0.43 | 96 | 1009.3 |
| 20260510011536 | 48 | 51 | 1.0 | 4.0 | 0.00 | 0.43 | 0.43 | 96 | 1009.1 |
| 20260510010034 | 48 | 316 | 1.0 | 5.0 | 0.00 | 0.43 | 0.43 | 96 | 1009.1 |
| 20260510004539 | 48 | 331 | 1.0 | 4.0 | 0.00 | 0.43 | 0.43 | 95 | 1008.7 |
| 20260510003031 | 48 | 232 | 1.0 | 3.0 | 0.00 | 0.43 | 0.43 | 95 | 1008.9 |
| 20260510001533 | 49 | 50 | 2.0 | 7.0 | 0.00 | 0.43 | 0.43 | 94 | 1008.8 |
| 20260510000032 | 49 | 30 | 1.0 | 6.0 | 0.00 | 0.43 | 0.43 | 94 | 1008.5 |
| 20260509234530 | 49 | 9 | 1.0 | 4.0 | 0.00 | 0.43 | 0.43 | 94 | 1008.2 |
| 20260509233031 | 49 | 0 | 1.0 | 4.0 | 0.00 | 0.43 | 0.43 | 94 | 1008.1 |
| 20260509231530 | 50 | 34 | 1.0 | 4.0 | 0.00 | 0.43 | 0.43 | 94 | 1008.1 |
| 20260509230033 | 50 | 61 | 1.0 | 6.0 | 0.00 | 0.43 | 0.43 | 94 | 1007.9 |
| 20260509224532 | 50 | 103 | 2.0 | 7.0 | 0.00 | 0.43 | 0.43 | 94 | 1007.9 |
| 20260509223033 | 50 | 334 | 2.0 | 7.0 | 0.01 | 0.43 | 0.43 | 94 | 1008.1 |
| 20260509221535 | 50 | 78 | 1.0 | 7.0 | 0.01 | 0.43 | 0.43 | 95 | 1008.0 |
| 20260509220030 | 50 | 31 | 3.0 | 8.0 | 0.01 | 0.43 | 0.43 | 95 | 1008.0 |
| 20260509214533 | 50 | 38 | 2.0 | 11.0 | 0.01 | 0.43 | 0.43 | 96 | 1008.1 |
| 20260509213042 | 50 | 93 | 2.0 | 10.0 | 0.01 | 0.42 | 0.42 | 97 | 1008.2 |
| 20260509211553 | 49 | 9 | 2.0 | 9.0 | 0.01 | 0.42 | 0.42 | 97 | 1008.2 |
| 20260509210034 | 49 | 59 | 2.0 | 8.0 | 0.02 | 0.42 | 0.42 | 97 | 1008.3 |
| 20260509204530 | 49 | 61 | 2.0 | 7.0 | 0.02 | 0.42 | 0.42 | 97 | 1008.7 |
| 20260509203040 | 48 | 46 | 1.0 | 4.0 | 0.02 | 0.41 | 0.41 | 97 | 1008.6 |
| 20260509201531 | 48 | 0 | 1.0 | 9.0 | 0.02 | 0.41 | 0.41 | 97 | 1008.9 |
| 20260509200031 | 48 | 336 | 3.0 | 11.0 | 0.02 | 0.40 | 0.40 | 97 | 1008.9 |
| 20260509194530 | 48 | 9 | 2.0 | 10.0 | 0.03 | 0.40 | 0.40 | 97 | 1009.2 |
| 20260509193030 | 48 | 221 | 1.0 | 11.0 | 0.02 | 0.39 | 0.39 | 97 | 1009.2 |
| 20260509191530 | 48 | 32 | 2.0 | 9.0 | 0.03 | 0.39 | 0.39 | 97 | 1009.2 |
| 20260509190036 | 48 | 72 | 2.0 | 7.0 | 0.03 | 0.38 | 0.38 | 98 | 1009.2 |
| 20260509184528 | 48 | 248 | 2.0 | 9.0 | 0.02 | 0.37 | 0.37 | 97 | 1009.2 |
| 20260509183035 | 47 | 46 | 2.0 | 8.0 | 0.03 | 0.37 | 0.37 | 98 | 1009.3 |
| 20260509181530 | 47 | 18 | 3.0 | 15.0 | 0.03 | 0.36 | 0.36 | 98 | 1009.4 |
| 20260509180034 | 47 | 28 | 3.0 | 11.0 | 0.02 | 0.35 | 0.35 | 97 | 1009.2 |
| 20260509174534 | 47 | 61 | 2.0 | 8.0 | 0.02 | 0.34 | 0.34 | 98 | 1009.3 |
| 20260509173030 | 47 | 16 | 2.0 | 7.0 | 0.03 | 0.34 | 0.34 | 98 | 1009.3 |
| 20260509171531 | 46 | 126 | 2.0 | 5.0 | 0.03 | 0.33 | 0.33 | 97 | 1009.3 |
| 20260509170032 | 47 | 301 | 1.0 | 5.0 | 0.04 | 0.33 | 0.33 | 97 | 1009.2 |
| 20260509164531 | 46 | 332 | 1.0 | 5.0 | 0.04 | 0.32 | 0.32 | 97 | 1009.2 |
| 20260509163045 | 46 | 292 | 1.0 | 4.0 | 0.04 | 0.31 | 0.31 | 97 | 1009.2 |
| 20260509161528 | 46 | 299 | 1.0 | 4.0 | 0.04 | 0.30 | 0.30 | 97 | 1009.4 |
| 20260509160033 | 46 | 309 | 1.0 | 5.0 | 0.04 | 0.29 | 0.29 | 97 | 1009.8 |
| 20260509154535 | 46 | 319 | 1.0 | 5.0 | 0.04 | 0.29 | 0.28 | 97 | 1010.1 |
| 20260509153032 | 46 | 336 | 2.0 | 5.0 | 0.04 | 0.28 | 0.27 | 97 | 1010.2 |
| 20260509151530 | 45 | 330 | 1.0 | 4.0 | 0.04 | 0.27 | 0.26 | 97 | 1010.6 |
| 20260509150030 | 45 | 334 | 2.0 | 6.0 | 0.04 | 0.26 | 0.25 | 97 | 1010.6 |
| 20260509144530 | 45 | 289 | 1.0 | 5.0 | 0.04 | 0.25 | 0.24 | 97 | 1010.6 |
| 20260509143031 | 44 | 251 | 2.0 | 8.0 | 0.04 | 0.24 | 0.23 | 97 | 1010.6 |
| 20260509141533 | 44 | 319 | 2.0 | 8.0 | 0.04 | 0.23 | 0.22 | 97 | 1010.2 |
| 20260509140030 | 44 | 287 | 3.0 | 8.0 | 0.04 | 0.22 | 0.21 | 97 | 1010.1 |
| 20260509134528 | 44 | 324 | 2.0 | 5.0 | 0.04 | 0.21 | 0.20 | 97 | 1010.3 |
| 20260509133031 | 44 | 287 | 2.0 | 4.0 | 0.04 | 0.20 | 0.19 | 97 | 1010.4 |
| 20260509131535 | 44 | 316 | 1.0 | 4.0 | 0.04 | 0.19 | 0.18 | 97 | 1010.5 |
| 20260509130032 | 44 | 294 | 2.0 | 5.0 | 0.04 | 0.18 | 0.17 | 97 | 1010.7 |
| 20260509124530 | 44 | 239 | 1.0 | 4.0 | 0.03 | 0.16 | 0.15 | 97 | 1010.7 |
| 20260509123031 | 44 | 298 | 1.0 | 4.0 | 0.03 | 0.15 | 0.14 | 97 | 1010.7 |
| 20260509121531 | 43 | 289 | 1.0 | 4.0 | 0.04 | 0.15 | 0.14 | 97 | 1010.6 |
| 20260509120035 | 43 | 303 | 1.0 | 5.0 | 0.04 | 0.14 | 0.13 | 97 | 1010.6 |
| 20260509114533 | 43 | 298 | 2.0 | 4.0 | 0.04 | 0.13 | 0.12 | 97 | 1010.5 |
| 20260509113030 | 43 | 309 | 1.0 | 4.0 | 0.03 | 0.12 | 0.11 | 97 | 1010.6 |
| 20260509111531 | 43 | 309 | 1.0 | 4.0 | 0.03 | 0.11 | 0.10 | 97 | 1010.7 |
| 20260509110031 | 43 | 292 | 1.0 | 3.0 | 0.02 | 0.10 | 0.09 | 96 | 1010.7 |
| 20260509104535 | 42 | 298 | 1.0 | 4.0 | 0.02 | 0.09 | 0.08 | 96 | 1010.8 |
| 20260509103035 | 42 | 266 | 1.0 | 4.0 | 0.03 | 0.09 | 0.08 | 96 | 1010.5 |
| 20260509101531 | 42 | 296 | 1.0 | 4.0 | 0.02 | 0.08 | 0.07 | 96 | 1010.7 |
| 20260509100032 | 42 | 288 | 2.0 | 4.0 | 0.01 | 0.07 | 0.06 | 96 | 1010.6 |
| 20260509094533 | 42 | 266 | 2.0 | 4.0 | 0.02 | 0.07 | 0.06 | 96 | 1010.4 |
| 20260509093035 | 42 | 309 | 1.0 | 3.0 | 0.01 | 0.06 | 0.05 | 96 | 1010.5 |
| 20260509091535 | 41 | 296 | 1.0 | 3.0 | 0.02 | 0.06 | 0.05 | 96 | 1010.4 |
| 20260509090032 | 41 | 292 | 2.0 | 4.0 | 0.02 | 0.06 | 0.05 | 95 | 1010.6 |
| 20260509084536 | 41 | 279 | 2.0 | 3.0 | 0.02 | 0.05 | 0.04 | 95 | 1010.6 |
| 20260509083030 | 41 | 298 | 1.0 | 3.0 | 0.02 | 0.05 | 0.04 | 96 | 1011.0 |
| 20260509081534 | 40 | 275 | 1.0 | 4.0 | 0.02 | 0.04 | 0.03 | 95 | 1011.0 |
| 20260509080043 | 41 | 296 | 2.0 | 4.0 | 0.02 | 0.04 | 0.03 | 95 | 1011.0 |
| 20260509074533 | 40 | 285 | 2.0 | 4.0 | 0.02 | 0.03 | 0.02 | 94 | 1010.9 |
| 20260509073110 | 40 | 283 | 1.0 | 4.0 | 0.02 | 0.03 | 0.02 | 93 | 1011.2 |
| 20260509071530 | 41 | 309 | 1.0 | 4.0 | 0.01 | 0.02 | 0.01 | 92 | 1010.9 |
| 20260509070034 | 40 | 309 | 2.0 | 5.0 | 0.01 | 0.02 | 0.01 | 91 | 1011.1 |
| 20260509064532 | 41 | 311 | 2.0 | 4.0 | 0.00 | 0.01 | 0.00 | 90 | 1011.1 |
| 20260509063031 | 41 | 285 | 2.0 | 5.0 | 0.00 | 0.01 | 0.00 | 87 | 1011.0 |
| 20260509061536 | 42 | 296 | 2.0 | 5.0 | 0.00 | 0.01 | 0.00 | 84 | 1011.2 |
| 20260509060030 | 42 | 306 | 2.0 | 5.0 | 0.00 | 0.01 | 0.00 | 81 | 1011.3 |
| 20260509054537 | 42 | 312 | 2.0 | 5.0 | 0.00 | 0.01 | 0.00 | 79 | 1011.3 |
| 20260509053034 | 42 | 290 | 2.0 | 5.0 | 0.00 | 0.01 | 0.00 | 77 | 1011.3 |
| 20260509051529 | 42 | 271 | 2.0 | 5.0 | 0.00 | 0.01 | 0.00 | 77 | 1011.6 |
| 20260509050038 | 42 | 281 | 2.0 | 5.0 | 0.00 | 0.01 | 0.00 | 77 | 1011.5 |
| 20260509044532 | 42 | 284 | 3.0 | 4.0 | 0.00 | 0.01 | 0.00 | 77 | 1011.6 |
| 20260509043042 | 42 | 296 | 2.0 | 4.0 | 0.00 | 0.01 | 0.00 | 76 | 1011.8 |
| 20260509041530 | 42 | 281 | 1.0 | 4.0 | 0.00 | 0.01 | 0.00 | 76 | 1011.7 |
| 20260509040034 | 42 | 274 | 2.0 | 6.0 | 0.00 | 0.01 | 0.00 | 74 | 1011.8 |
| 20260509034531 | 42 | 281 | 3.0 | 6.0 | 0.00 | 0.01 | 0.01 | 72 | 1011.8 |
| 20260509033030 | 43 | 287 | 2.0 | 4.0 | 0.00 | 0.01 | 0.01 | 70 | 1011.8 |